Home   Weather   USA   Austin   Past weeks
Flag for USA

Past Weather in Austin, Texas, USA — August 2017

Currently: 75 °F. Mild. (Weather station: Camp Mabry / Austin City, USA). See more current weather

August 2017 Weather in Austin — Graph

°F

High & Low Weather Summary for August 2017

 TemperatureHumidityPressure
High101 °F (Aug 5, 2:51 pm)100% (Aug 7, 5:35 am)30.10 "Hg (Aug 7, 5:35 am)
Low69 °F (Aug 7, 6:11 am)24% (Aug 1, 5:51 pm)29.70 "Hg (Aug 27, 4:51 am)
Average83 °F67%29.91 "Hg
* Reported Aug 1 12:51 am — Aug 31 11:51 pm, Austin. Weather by CustomWeather, © 2023

Note: Actual official high and low records may vary slightly from our data, if they occured in-between our weather recording intervals... More about our weather records

Austin Weather History for August 1, 2017

Scroll right to see more
 ConditionsComfort  
Time TempWeatherWind HumidityBarometerVisibility
12:51 am
Tue, Aug 1
83 °FClear.3 mph48%29.97 "Hg10 mi
1:51 am81 °FClear.3 mph51%29.97 "Hg10 mi
2:51 am79 °FClear.No wind62%29.97 "Hg10 mi
3:51 am78 °FClear.No wind66%29.97 "Hg10 mi
4:51 am77 °FClear.No wind71%29.97 "Hg10 mi
5:51 am76 °FClear.No wind77%29.97 "Hg10 mi
6:51 am75 °FSunny.No wind79%29.98 "Hg10 mi
7:51 am78 °FSunny.No wind74%29.99 "Hg10 mi
8:51 am83 °FSunny.No wind59%29.99 "Hg10 mi
9:51 am88 °FSunny.3 mph45%30.00 "Hg10 mi
10:51 am90 °FSunny.No wind39%30.00 "Hg10 mi
11:52 am92 °FHot.3 mph37%29.99 "Hg10 mi
1:51 pm97 °FScattered clouds.6 mph28%29.95 "Hg10 mi
2:51 pm98 °FSunny.No wind28%29.93 "Hg10 mi
3:51 pm98 °FPartly sunny.7 mph26%29.92 "Hg10 mi
4:51 pm96 °FPartly sunny.6 mph27%29.91 "Hg10 mi
5:51 pm96 °FPassing clouds.5 mph24%29.90 "Hg10 mi
6:51 pm95 °FSunny.8 mph29%29.90 "Hg10 mi
7:51 pm93 °FPassing clouds.5 mph31%29.90 "Hg10 mi
8:51 pm91 °FPassing clouds.6 mph36%29.91 "Hg10 mi
9:51 pm90 °FPassing clouds.5 mph37%29.93 "Hg10 mi
10:51 pm89 °FOvercast.6 mph38%29.95 "Hg10 mi
11:51 pm87 °FOvercast.6 mph53%29.96 "Hg10 mi
Weather by CustomWeather, © 2023

See weather overview